createdAt,value
2019-03-09T00:01:45.722Z,97183.81
2019-03-09T00:04:52.435Z,97184.73
2019-03-09T00:07:58.987Z,97167.70
2019-03-09T00:11:05.487Z,97173.95
2019-03-09T00:14:12.405Z,97173.27
2019-03-09T00:17:18.866Z,97156.85
2019-03-09T00:20:25.112Z,97157.30
2019-03-09T00:23:49.437Z,97147.41
2019-03-09T00:27:13.981Z,97142.53
2019-03-09T00:30:24.417Z,97129.05
2019-03-09T00:33:31.230Z,97121.73
2019-03-09T00:36:38.207Z,97124.72
2019-03-09T00:39:44.518Z,97136.05
2019-03-09T00:42:50.988Z,97123.16
2019-03-09T00:45:57.556Z,97114.09
2019-03-09T00:49:03.972Z,97108.19
2019-03-09T00:52:10.203Z,97094.80
2019-03-09T00:55:17.045Z,97098.05
2019-03-09T00:58:23.483Z,97100.58
2019-03-09T01:01:30.588Z,97102.66
2019-03-09T01:04:37.083Z,97106.58
2019-03-09T01:07:43.340Z,97098.61
2019-03-09T01:10:50.219Z,97108.91
2019-03-09T01:13:57.063Z,97107.33
2019-03-09T01:17:04.924Z,97093.57
2019-03-09T01:20:13.915Z,97090.48
2019-03-09T01:23:20.463Z,97071.86
2019-03-09T01:26:27.154Z,97068.50
2019-03-09T01:29:33.633Z,97068.95
2019-03-09T01:32:40.447Z,97067.25
2019-03-09T01:35:47.417Z,97046.67
2019-03-09T01:38:53.814Z,97045.23
2019-03-09T01:42:00.206Z,97032.80
2019-03-09T01:45:07.866Z,97026.64
2019-03-09T01:48:14.600Z,97024.11
2019-03-09T01:51:22.295Z,97017.53
2019-03-09T01:54:28.882Z,97008.14
2019-03-09T01:57:35.071Z,97003.54
2019-03-09T02:00:41.813Z,96996.31
2019-03-09T02:03:48.362Z,96979.34
2019-03-09T02:06:54.784Z,96973.07
2019-03-09T02:10:01.372Z,96961.47
2019-03-09T02:13:09.859Z,96952.73
2019-03-09T02:16:16.377Z,96941.27
2019-03-09T02:19:22.959Z,96945.06
2019-03-09T02:22:29.698Z,96943.08
2019-03-09T02:25:36.592Z,96927.89
2019-03-09T02:28:43.085Z,96907.81
2019-03-09T02:31:49.436Z,96900.25
2019-03-09T02:34:56.177Z,96901.20
2019-03-09T02:38:09.477Z,96897.58
2019-03-09T02:41:16.320Z,96885.55
2019-03-09T02:44:23.039Z,96868.55
2019-03-09T02:47:29.752Z,96860.69
2019-03-09T02:50:38.161Z,96864.24
2019-03-09T02:53:44.740Z,96859.75
2019-03-09T02:56:51.592Z,96840.22
2019-03-09T02:59:58.075Z,96826.48
2019-03-09T03:03:05.710Z,96816.61
2019-03-09T03:06:12.728Z,96801.45
2019-03-09T03:09:19.110Z,96772.67
2019-03-09T03:12:26.436Z,96777.98
2019-03-09T03:15:36.253Z,96772.73
2019-03-09T03:18:44.722Z,96750.92
2019-03-09T03:21:50.967Z,96733.07
2019-03-09T03:24:57.550Z,96733.27
2019-03-09T03:28:04.290Z,96711.66
2019-03-09T03:31:10.865Z,96715.91
2019-03-09T03:34:17.916Z,96694.25
2019-03-09T03:37:24.887Z,96682.49
2019-03-09T03:40:31.134Z,96681.61
2019-03-09T03:43:38.883Z,96673.91
2019-03-09T03:46:45.214Z,96661.15
2019-03-09T03:49:51.965Z,96676.85
2019-03-09T03:52:58.350Z,96672.53
2019-03-09T03:56:05.219Z,96672.22
2019-03-09T03:59:12.003Z,96672.00
2019-03-09T04:02:18.789Z,96667.19
2019-03-09T04:05:25.193Z,96680.27
2019-03-09T04:08:32.082Z,96663.13
2019-03-09T04:11:38.603Z,96683.98
2019-03-09T04:14:45.290Z,96664.16
2019-03-09T04:17:51.610Z,96656.07
2019-03-09T04:21:01.728Z,96661.46
2019-03-09T04:24:06.990Z,96678.52
2019-03-09T04:27:13.792Z,96688.44
2019-03-09T04:30:21.268Z,96713.79
2019-03-09T04:33:28.637Z,96726.20
2019-03-09T04:36:35.532Z,96723.19
2019-03-09T04:39:42.085Z,96727.14
2019-03-09T04:42:48.526Z,96716.52
2019-03-09T04:45:55.170Z,96716.19
2019-03-09T04:49:01.816Z,96726.25
2019-03-09T04:52:08.121Z,96717.47
2019-03-09T04:55:14.602Z,96719.07
2019-03-09T04:58:21.399Z,96714.45
2019-03-09T05:01:28.367Z,96720.02
2019-03-09T05:04:43.042Z,96717.45
2019-03-09T05:08:10.266Z,96722.78
2019-03-09T05:11:21.604Z,96710.79
2019-03-09T05:14:28.313Z,96698.97
2019-03-09T05:17:34.536Z,96705.09
2019-03-09T05:20:41.429Z,96696.37
2019-03-09T05:23:48.139Z,96686.10
2019-03-09T05:26:54.860Z,96690.45
2019-03-09T05:30:01.360Z,96681.25
2019-03-09T05:33:08.384Z,96682.50
2019-03-09T05:36:15.861Z,96681.34
2019-03-09T05:39:22.415Z,96680.63
2019-03-09T05:42:30.318Z,96691.52
2019-03-09T05:45:36.656Z,96667.97
2019-03-09T05:48:45.228Z,96689.95
2019-03-09T05:52:27.240Z,96692.14
2019-03-09T05:55:33.843Z,96693.87
2019-03-09T05:58:40.701Z,96697.42
2019-03-09T06:01:48.210Z,96691.20
2019-03-09T06:04:54.841Z,96682.09
2019-03-09T06:08:02.061Z,96681.94
2019-03-09T06:11:08.630Z,96684.80
2019-03-09T06:14:16.525Z,96689.00
2019-03-09T06:17:22.821Z,96692.57
2019-03-09T06:20:29.270Z,96678.22
2019-03-09T06:23:36.282Z,96681.19
2019-03-09T06:26:43.527Z,96680.65
2019-03-09T06:29:49.925Z,96688.52
2019-03-09T06:33:32.648Z,96690.30
2019-03-09T06:37:06.826Z,96698.44
2019-03-09T06:40:13.335Z,96706.36
2019-03-09T06:43:20.136Z,96702.50
2019-03-09T06:46:27.505Z,96724.98
2019-03-09T06:49:33.991Z,96710.71
2019-03-09T06:52:41.224Z,96716.15
2019-03-09T06:55:47.500Z,96715.98
2019-03-09T06:58:53.857Z,96721.28
2019-03-09T07:02:00.381Z,96754.70
2019-03-09T07:05:08.057Z,96758.96
2019-03-09T07:08:14.666Z,96753.71
2019-03-09T07:11:21.487Z,96764.30
2019-03-09T07:15:17.646Z,96787.23
2019-03-09T07:18:31.245Z,96796.12
2019-03-09T07:21:38.953Z,96803.12
2019-03-09T07:24:45.726Z,96796.70
2019-03-09T07:28:07.569Z,96807.64
2019-03-09T07:31:14.403Z,96818.98
2019-03-09T07:34:25.086Z,96809.22
2019-03-09T07:37:32.293Z,96808.56
2019-03-09T07:40:39.726Z,96811.53
2019-03-09T07:43:46.610Z,96811.80
2019-03-09T07:46:53.793Z,96807.34
2019-03-09T07:50:00.529Z,96823.97
2019-03-09T07:53:07.881Z,96832.17
2019-03-09T07:56:14.818Z,96827.60
2019-03-09T07:59:22.252Z,96820.49
2019-03-09T08:02:34.572Z,96827.89
2019-03-09T08:05:43.053Z,96834.19
2019-03-09T08:08:50.108Z,96836.03
2019-03-09T08:11:58.142Z,96839.41
2019-03-09T08:15:05.259Z,96838.80
2019-03-09T08:18:11.952Z,96841.91
2019-03-09T08:21:19.166Z,96838.00
2019-03-09T08:24:26.272Z,96849.39
2019-03-09T08:27:32.876Z,96874.16
2019-03-09T08:30:40.327Z,96873.57
2019-03-09T08:33:47.517Z,96879.53
2019-03-09T08:36:54.233Z,96874.64
2019-03-09T08:40:00.870Z,96887.66
2019-03-09T08:43:08.717Z,96884.56
2019-03-09T08:46:16.444Z,96879.28
2019-03-09T08:49:25.979Z,96897.39
2019-03-09T08:52:32.780Z,96909.84
2019-03-09T08:55:39.690Z,96918.22
2019-03-09T08:58:46.211Z,96930.77
2019-03-09T09:01:52.549Z,96913.16
2019-03-09T09:04:59.053Z,96916.97
2019-03-09T09:08:06.062Z,96908.22
2019-03-09T09:11:12.990Z,96902.50
2019-03-09T09:14:19.787Z,96898.84
2019-03-09T09:17:26.524Z,96902.30
2019-03-09T09:20:33.350Z,96895.30
2019-03-09T09:23:41.364Z,96888.80
2019-03-09T09:26:48.188Z,96887.23
2019-03-09T09:29:54.968Z,96889.20
2019-03-09T09:33:01.439Z,96883.02
2019-03-09T09:36:08.142Z,96874.44
2019-03-09T09:39:14.756Z,96900.05
2019-03-09T09:42:21.630Z,96889.61
2019-03-09T09:45:28.337Z,96886.33
2019-03-09T09:48:34.672Z,96889.70
2019-03-09T09:51:43.053Z,96891.33
2019-03-09T09:54:49.650Z,96881.36
2019-03-09T09:57:56.190Z,96878.85
2019-03-09T10:01:03.337Z,96886.47
2019-03-09T10:04:09.659Z,96871.00
2019-03-09T10:07:16.537Z,96861.76
2019-03-09T10:10:23.514Z,96879.47
2019-03-09T10:13:30.229Z,96893.71
2019-03-09T10:16:37.368Z,96905.19
2019-03-09T10:19:44.171Z,96915.13
2019-03-09T10:22:51.290Z,96926.38
2019-03-09T10:25:58.446Z,96936.69
2019-03-09T10:29:05.757Z,96947.27
2019-03-09T10:32:12.464Z,96942.42
2019-03-09T10:35:19.372Z,96953.55
2019-03-09T10:38:27.953Z,96960.09
2019-03-09T10:41:35.650Z,96948.15
2019-03-09T10:44:42.644Z,96954.64
2019-03-09T10:47:49.696Z,96971.88
2019-03-09T10:50:56.508Z,96961.50
2019-03-09T10:54:03.131Z,96967.48
2019-03-09T10:57:10.028Z,96952.46
2019-03-09T11:00:23.044Z,96950.91
2019-03-09T11:03:29.821Z,96962.79
2019-03-09T11:06:38.308Z,96961.67
2019-03-09T11:09:45.105Z,96958.17
2019-03-09T11:12:55.064Z,96966.93
2019-03-09T11:16:01.610Z,96967.23
2019-03-09T11:19:08.596Z,96966.89
2019-03-09T11:22:15.424Z,96958.69
2019-03-09T11:25:21.932Z,96969.92
2019-03-09T11:28:28.944Z,96982.72
2019-03-09T11:31:36.486Z,96987.42
2019-03-09T11:34:44.505Z,96977.04
2019-03-09T11:37:52.102Z,96981.26
2019-03-09T11:41:00.815Z,96969.06
2019-03-09T11:44:08.107Z,96963.66
2019-03-09T11:47:14.894Z,96969.95
2019-03-09T11:50:22.176Z,96968.39
2019-03-09T11:53:28.977Z,96968.02
2019-03-09T11:56:36.667Z,96973.12
2019-03-09T11:59:43.520Z,96955.96
2019-03-09T12:02:50.385Z,96956.30
2019-03-09T12:05:58.116Z,96962.72
2019-03-09T12:09:05.747Z,96949.86
2019-03-09T12:12:14.752Z,96942.52
2019-03-09T12:15:21.224Z,96932.30
2019-03-09T12:18:28.264Z,96928.21
2019-03-09T12:21:35.493Z,96922.41
2019-03-09T12:24:42.529Z,96913.08
2019-03-09T12:27:49.410Z,96918.22
2019-03-09T12:30:56.295Z,96918.52
2019-03-09T12:34:03.200Z,96928.98
2019-03-09T12:37:10.798Z,96909.94
2019-03-09T12:40:18.128Z,96906.67
2019-03-09T12:43:25.238Z,96891.97
2019-03-09T12:46:31.936Z,96899.05
2019-03-09T12:49:38.336Z,96901.19
2019-03-09T12:53:05.368Z,96899.26
2019-03-09T12:56:13.498Z,96882.17
2019-03-09T12:59:20.111Z,96889.66
2019-03-09T13:02:27.143Z,96860.55
2019-03-09T13:05:33.859Z,96872.45
2019-03-09T13:08:40.699Z,96861.19
2019-03-09T13:11:47.481Z,96854.73
2019-03-09T13:14:54.219Z,96844.90
2019-03-09T13:18:04.897Z,96829.27
2019-03-09T13:21:13.046Z,96822.75
2019-03-09T13:24:20.045Z,96813.40
2019-03-09T13:27:27.460Z,96795.30
2019-03-09T13:30:35.079Z,96805.22
2019-03-09T13:33:42.879Z,96811.94
2019-03-09T13:36:51.690Z,96790.09
2019-03-09T13:39:58.142Z,96793.07
2019-03-09T13:43:07.089Z,96784.44
2019-03-09T13:46:14.010Z,96766.89
2019-03-09T13:49:20.883Z,96762.50
2019-03-09T13:52:27.861Z,96746.56
2019-03-09T13:55:34.851Z,96744.36
2019-03-09T13:58:41.890Z,96723.59
2019-03-09T14:01:49.665Z,96720.95
2019-03-09T14:04:56.921Z,96726.12
2019-03-09T14:08:04.052Z,96713.28
2019-03-09T14:11:10.817Z,96700.14
2019-03-09T14:14:18.329Z,96692.21
2019-03-09T14:17:25.944Z,96688.17
2019-03-09T14:20:33.049Z,96671.64
2019-03-09T14:23:42.658Z,96647.84
2019-03-09T14:26:49.409Z,96615.36
2019-03-09T14:29:56.308Z,96592.53
2019-03-09T14:33:03.007Z,96585.06
2019-03-09T14:36:10.139Z,96573.88
2019-03-09T14:39:16.962Z,96569.06
2019-03-09T14:42:24.051Z,96547.39
2019-03-09T14:45:32.369Z,96538.91
2019-03-09T14:48:39.062Z,96514.65
2019-03-09T14:51:46.692Z,96517.27
2019-03-09T14:54:53.819Z,96555.97
2019-03-09T14:58:00.946Z,96553.20
2019-03-09T15:01:07.649Z,96566.25
2019-03-09T15:04:14.649Z,96546.59
2019-03-09T15:07:23.630Z,96525.87
2019-03-09T15:10:34.271Z,96510.67
2019-03-09T15:13:41.970Z,96511.83
2019-03-09T15:16:51.881Z,96493.33
2019-03-09T15:19:59.399Z,96496.80
2019-03-09T15:23:09.719Z,96497.92
2019-03-09T15:26:16.982Z,96498.78
2019-03-09T15:29:23.560Z,96499.47
2019-03-09T15:32:29.828Z,96476.95
2019-03-09T15:35:37.674Z,96452.48
2019-03-09T15:38:44.462Z,96440.98
2019-03-09T15:41:52.380Z,96431.03
2019-03-09T15:44:59.272Z,96400.80
2019-03-09T15:48:08.030Z,96400.18
2019-03-09T15:51:15.086Z,96368.30
2019-03-09T15:54:22.545Z,96380.95
2019-03-09T15:57:29.634Z,96383.34
2019-03-09T16:00:39.388Z,96370.80
2019-03-09T16:03:50.685Z,96379.61
2019-03-09T16:07:01.571Z,96365.80
2019-03-09T16:10:11.446Z,96376.84
2019-03-09T16:13:19.337Z,96351.06
2019-03-09T16:16:28.602Z,96387.19
2019-03-09T16:19:38.059Z,96382.50
2019-03-09T16:22:45.320Z,96397.12
2019-03-09T16:25:52.861Z,96377.25
2019-03-09T16:29:00.313Z,96396.21
2019-03-09T16:32:08.023Z,96374.61
2019-03-09T16:35:15.141Z,96387.64
2019-03-09T16:38:21.792Z,96370.39
2019-03-09T16:41:34.571Z,96363.55
2019-03-09T16:44:43.309Z,96355.00
2019-03-09T16:47:50.416Z,96349.28
2019-03-09T16:50:57.496Z,96386.92
2019-03-09T16:54:04.424Z,96380.00
2019-03-09T16:57:11.641Z,96356.26
2019-03-09T17:00:20.513Z,96323.91
2019-03-09T17:03:27.799Z,96381.63
2019-03-09T17:06:35.137Z,96441.13
2019-03-09T17:09:42.442Z,96455.35
2019-03-09T17:12:51.455Z,96408.70
2019-03-09T17:15:58.933Z,96406.09
2019-03-09T17:19:06.333Z,96441.59
2019-03-09T17:22:13.228Z,96457.24
2019-03-09T17:25:19.907Z,96476.75
2019-03-09T17:28:27.955Z,96478.45
2019-03-09T17:31:35.529Z,96466.74
2019-03-09T17:34:42.187Z,96460.33
2019-03-09T17:37:49.412Z,96458.84
2019-03-09T17:40:56.323Z,96462.59
2019-03-09T17:44:02.962Z,96482.03
2019-03-09T17:47:10.361Z,96480.49
2019-03-09T17:50:17.280Z,96499.12
2019-03-09T17:53:24.817Z,96497.88
2019-03-09T17:56:31.681Z,96522.34
2019-03-09T17:59:38.767Z,96531.24
2019-03-09T18:02:45.515Z,96494.19
2019-03-09T18:05:52.256Z,96511.48
2019-03-09T18:08:58.876Z,96512.81
2019-03-09T18:12:06.597Z,96509.69
2019-03-09T18:15:13.111Z,96545.23
2019-03-09T18:18:19.969Z,96588.64
2019-03-09T18:21:28.539Z,96666.30
2019-03-09T18:24:35.975Z,96703.27
2019-03-09T18:27:42.792Z,96717.98
2019-03-09T18:30:49.432Z,96774.17
2019-03-09T18:33:56.569Z,96786.63
2019-03-09T18:37:03.973Z,96791.35
2019-03-09T18:40:11.331Z,96831.84
2019-03-09T18:43:18.147Z,96833.53
2019-03-09T18:46:25.535Z,96816.97
2019-03-09T18:49:32.679Z,96849.37
2019-03-09T18:52:39.246Z,96819.91
2019-03-09T18:55:46.187Z,96809.75
2019-03-09T18:58:53.327Z,96823.13
2019-03-09T19:02:00.133Z,96826.97
2019-03-09T19:05:06.943Z,96826.27
2019-03-09T19:08:13.942Z,96822.88
2019-03-09T19:11:20.381Z,96846.60
2019-03-09T19:14:26.991Z,96865.81
2019-03-09T19:17:33.985Z,96885.20
2019-03-09T19:20:40.481Z,96889.71
2019-03-09T19:23:47.288Z,96920.91
2019-03-09T19:26:53.725Z,96924.84
2019-03-09T19:30:00.724Z,96951.34
2019-03-09T19:33:08.799Z,96955.16
2019-03-09T19:36:15.509Z,96970.27
2019-03-09T19:39:22.053Z,96965.56
2019-03-09T19:42:28.782Z,96979.86
2019-03-09T19:45:37.119Z,96985.95
2019-03-09T19:48:44.160Z,97009.72
2019-03-09T19:51:50.981Z,97018.34
2019-03-09T19:54:57.458Z,97022.55
2019-03-09T19:58:04.020Z,97047.52
2019-03-09T20:01:10.240Z,97048.11
2019-03-09T20:04:16.740Z,97060.00
2019-03-09T20:07:23.661Z,97062.17
2019-03-09T20:10:32.498Z,97070.96
2019-03-09T20:13:39.209Z,97080.73
2019-03-09T20:16:46.227Z,97071.22
2019-03-09T20:19:52.881Z,97074.13
2019-03-09T20:22:59.507Z,97089.31
2019-03-09T20:26:06.131Z,97102.33
2019-03-09T20:29:13.058Z,97090.90
2019-03-09T20:32:19.572Z,97103.64
2019-03-09T20:35:27.388Z,97085.01
2019-03-09T20:38:35.366Z,97088.48
2019-03-09T20:41:42.915Z,97097.47
2019-03-09T20:44:49.549Z,97111.91
2019-03-09T20:47:56.382Z,97094.56
2019-03-09T20:51:03.041Z,97090.44
2019-03-09T20:54:10.526Z,97091.58
2019-03-09T20:57:17.210Z,97105.43
2019-03-09T21:00:23.751Z,97103.27
2019-03-09T21:03:30.558Z,97115.27
2019-03-09T21:06:40.888Z,97101.98
2019-03-09T21:09:48.422Z,97103.19
2019-03-09T21:13:08.998Z,97108.34
2019-03-09T21:16:15.618Z,97111.80
2019-03-09T21:19:22.109Z,97118.28
2019-03-09T21:22:28.609Z,97111.72
2019-03-09T21:25:36.797Z,97120.42
2019-03-09T21:28:43.931Z,97122.86
2019-03-09T21:31:52.231Z,97125.22
2019-03-09T21:34:59.211Z,97128.58
2019-03-09T21:38:06.164Z,97116.50
2019-03-09T21:41:13.243Z,97120.98
2019-03-09T21:44:20.777Z,97117.45
2019-03-09T21:47:32.154Z,97123.70
2019-03-09T21:50:39.144Z,97119.59
2019-03-09T21:53:46.851Z,97118.55
2019-03-09T21:56:53.852Z,97110.51
2019-03-09T22:00:01.543Z,97120.70
2019-03-09T22:03:10.034Z,97115.66
2019-03-09T22:06:17.204Z,97130.46
2019-03-09T22:09:24.724Z,97128.76
2019-03-09T22:12:36.824Z,97146.81
2019-03-09T22:15:45.269Z,97138.69
2019-03-09T22:18:52.499Z,97130.64
2019-03-09T22:21:59.995Z,97117.91
2019-03-09T22:25:09.146Z,97107.51
2019-03-09T22:28:16.140Z,97116.42
2019-03-09T22:31:23.444Z,97122.10
2019-03-09T22:34:31.118Z,97113.52
2019-03-09T22:37:37.986Z,97106.68
2019-03-09T22:40:45.848Z,97096.09
2019-03-09T22:43:54.443Z,97109.11
2019-03-09T22:47:11.204Z,97114.53
2019-03-09T22:50:13.364Z,97133.55
2019-03-09T22:53:21.004Z,97136.14
2019-03-09T22:56:27.898Z,97128.50
2019-03-09T22:59:35.420Z,97134.39
2019-03-09T23:02:44.599Z,97142.51
2019-03-09T23:05:51.982Z,97145.31
2019-03-09T23:08:58.477Z,97148.70
2019-03-09T23:12:05.459Z,97149.09
2019-03-09T23:15:13.445Z,97166.02
2019-03-09T23:18:20.019Z,97167.13
2019-03-09T23:21:27.648Z,97154.12
2019-03-09T23:24:35.594Z,97146.81
2019-03-09T23:27:42.447Z,97147.66
2019-03-09T23:30:54.678Z,97157.20
2019-03-09T23:34:01.715Z,97149.91
2019-03-09T23:37:09.219Z,97151.73
2019-03-09T23:40:16.834Z,97146.61
2019-03-09T23:43:23.358Z,97136.20
2019-03-09T23:46:30.614Z,97144.67
2019-03-09T23:49:41.348Z,97141.30
2019-03-09T23:52:48.721Z,97130.13
2019-03-09T23:55:55.442Z,97122.03
2019-03-09T23:59:02.450Z,97125.88
